sensor_id;sensor_type;location;lat;lon;timestamp;pressure;altitude;pressure_sealevel;temperature;humidity
64158;BME280;50449;51.528;5.076;2023-02-10T00:01:47;103480.63;;;4.46;67.19
64158;BME280;50449;51.528;5.076;2023-02-10T00:04:13;103476.28;;;4.45;67.27
64158;BME280;50449;51.528;5.076;2023-02-10T00:06:39;103478.13;;;4.44;67.38
64158;BME280;50449;51.528;5.076;2023-02-10T00:09:06;103490.66;;;4.44;67.18
64158;BME280;50449;51.528;5.076;2023-02-10T00:11:31;103487.13;;;4.43;66.98
64158;BME280;50449;51.528;5.076;2023-02-10T00:14:17;103473.88;;;4.42;67.14
64158;BME280;50449;51.528;5.076;2023-02-10T00:16:43;103490.78;;;4.42;67.48
64158;BME280;50449;51.528;5.076;2023-02-10T00:19:08;103494.44;;;4.41;67.50
64158;BME280;50449;51.528;5.076;2023-02-10T00:21:34;103496.25;;;4.41;67.16
64158;BME280;50449;51.528;5.076;2023-02-10T00:23:59;103495.41;;;4.40;67.42
64158;BME280;50449;51.528;5.076;2023-02-10T00:26:25;103487.38;;;4.40;67.18
64158;BME280;50449;51.528;5.076;2023-02-10T00:28:51;103493.59;;;4.41;67.16
64158;BME280;50449;51.528;5.076;2023-02-10T00:31:17;103493.72;;;4.39;67.43
64158;BME280;50449;51.528;5.076;2023-02-10T00:33:44;103493.84;;;4.38;67.20
64158;BME280;50449;51.528;5.076;2023-02-10T00:36:11;103491.19;;;4.38;67.42
64158;BME280;50449;51.528;5.076;2023-02-10T00:38:38;103484.16;;;4.37;67.35
64158;BME280;50449;51.528;5.076;2023-02-10T00:41:05;103488.50;;;4.38;67.29
64158;BME280;50449;51.528;5.076;2023-02-10T00:43:31;103488.66;;;4.36;67.37
64158;BME280;50449;51.528;5.076;2023-02-10T00:45:56;103488.66;;;4.36;67.56
64158;BME280;50449;51.528;5.076;2023-02-10T00:48:22;103490.47;;;4.36;67.36
64158;BME280;50449;51.528;5.076;2023-02-10T00:50:47;103488.78;;;4.34;67.63
64158;BME280;50449;51.528;5.076;2023-02-10T00:53:12;103493.13;;;4.36;67.30
64158;BME280;50449;51.528;5.076;2023-02-10T00:55:38;103495.13;;;4.33;67.53
64158;BME280;50449;51.528;5.076;2023-02-10T00:58:03;103492.44;;;4.33;67.15
64158;BME280;50449;51.528;5.076;2023-02-10T01:00:29;103497.81;;;4.33;67.08
64158;BME280;50449;51.528;5.076;2023-02-10T01:02:54;103498.75;;;4.32;67.46
64158;BME280;50449;51.528;5.076;2023-02-10T01:05:19;103502.44;;;4.31;67.51
64158;BME280;50449;51.528;5.076;2023-02-10T01:07:45;103504.28;;;4.31;67.31
64158;BME280;50449;51.528;5.076;2023-02-10T01:10:10;103506.06;;;4.30;67.53
64158;BME280;50449;51.528;5.076;2023-02-10T01:12:35;103507.91;;;4.30;67.30
64158;BME280;50449;51.528;5.076;2023-02-10T01:15:01;103507.06;;;4.29;67.75
64158;BME280;50449;51.528;5.076;2023-02-10T01:17:26;103508.91;;;4.29;67.47
64158;BME280;50449;51.528;5.076;2023-02-10T01:19:51;103518.75;;;4.28;67.39
64158;BME280;50449;51.528;5.076;2023-02-10T01:22:17;103517.88;;;4.28;67.35
64158;BME280;50449;51.528;5.076;2023-02-10T01:24:42;103523.38;;;4.26;67.77
64158;BME280;50449;51.528;5.076;2023-02-10T01:27:08;103524.22;;;4.27;67.52
64158;BME280;50449;51.528;5.076;2023-02-10T01:29:33;103523.38;;;4.26;67.52
64158;BME280;50449;51.528;5.076;2023-02-10T01:31:58;103529.69;;;4.25;67.44
64158;BME280;50449;51.528;5.076;2023-02-10T01:34:24;103533.25;;;4.26;67.44
64158;BME280;50449;51.528;5.076;2023-02-10T01:36:49;103537.72;;;4.25;67.28
64158;BME280;50449;51.528;5.076;2023-02-10T01:39:15;103536.06;;;4.24;67.78
64158;BME280;50449;51.528;5.076;2023-02-10T01:41:41;103526.31;;;4.23;67.56
64158;BME280;50449;51.528;5.076;2023-02-10T01:46:52;103510.41;;;4.22;67.31
64158;BME280;50449;51.528;5.076;2023-02-10T01:49:21;103512.25;;;4.21;67.28
64158;BME280;50449;51.528;5.076;2023-02-10T01:54:26;103507.84;;;4.20;67.46
64158;BME280;50449;51.528;5.076;2023-02-10T01:56:54;103503.50;;;4.19;67.72
64158;BME280;50449;51.528;5.076;2023-02-10T01:59:21;103505.31;;;4.19;67.54
64158;BME280;50449;51.528;5.076;2023-02-10T02:01:49;103510.69;;;4.19;67.45
64158;BME280;50449;51.528;5.076;2023-02-10T02:04:15;103502.78;;;4.17;67.45
64158;BME280;50449;51.528;5.076;2023-02-10T02:06:40;103507.13;;;4.18;67.59
64158;BME280;50449;51.528;5.076;2023-02-10T02:09:08;103507.28;;;4.17;67.20
64158;BME280;50449;51.528;5.076;2023-02-10T02:12:01;103508.25;;;4.16;67.58
64158;BME280;50449;51.528;5.076;2023-02-10T02:15:07;103513.59;;;4.16;67.46
64158;BME280;50449;51.528;5.076;2023-02-10T02:37:02;103518.91;;;4.06;67.32
64158;BME280;50449;51.528;5.076;2023-02-10T02:39:29;103527.91;;;4.05;67.42
64158;BME280;50449;51.528;5.076;2023-02-10T02:44:39;103530.56;;;4.05;67.70
64158;BME280;50449;51.528;5.076;2023-02-10T02:47:13;103527.91;;;4.05;67.32
64158;BME280;50449;51.528;5.076;2023-02-10T02:52:15;103523.53;;;4.04;67.75
64158;BME280;50449;51.528;5.076;2023-02-10T02:54:48;103528.03;;;4.03;67.46
64158;BME280;50449;51.528;5.076;2023-02-10T02:57:27;103514.78;;;4.02;67.78
64158;BME280;50449;51.528;5.076;2023-02-10T03:00:02;103512.13;;;4.02;67.70
64158;BME280;50449;51.528;5.076;2023-02-10T03:02:30;103520.13;;;4.02;67.59
64158;BME280;50449;51.528;5.076;2023-02-10T03:04:58;103526.47;;;4.01;67.56
64158;BME280;50449;51.528;5.076;2023-02-10T03:07:24;103527.44;;;4.00;67.41
64158;BME280;50449;51.528;5.076;2023-02-10T03:09:50;103531.84;;;4.01;67.35
64158;BME280;50449;51.528;5.076;2023-02-10T03:12:16;103535.47;;;4.00;67.24
64158;BME280;50449;51.528;5.076;2023-02-10T03:14:41;103534.63;;;3.99;67.46
64158;BME280;50449;51.528;5.076;2023-02-10T03:17:07;103539.13;;;3.99;67.56
64158;BME280;50449;51.528;5.076;2023-02-10T03:19:32;103538.28;;;3.98;67.58
64158;BME280;50449;51.528;5.076;2023-02-10T03:21:57;103540.09;;;3.98;67.72
64158;BME280;50449;51.528;5.076;2023-02-10T03:24:23;103538.41;;;3.97;67.67
64158;BME280;50449;51.528;5.076;2023-02-10T03:26:48;103535.72;;;3.97;67.70
64158;BME280;50449;51.528;5.076;2023-02-10T03:29:15;103541.09;;;3.97;67.28
64158;BME280;50449;51.528;5.076;2023-02-10T03:31:40;103542.06;;;3.96;67.44
64158;BME280;50449;51.528;5.076;2023-02-10T03:34:06;103543.03;;;3.95;67.53
64158;BME280;50449;51.528;5.076;2023-02-10T03:36:31;103542.19;;;3.94;67.66
64158;BME280;50449;51.528;5.076;2023-02-10T03:38:59;103545.84;;;3.93;67.44
64158;BME280;50449;51.528;5.076;2023-02-10T03:41:24;103557.38;;;3.94;67.49
64158;BME280;50449;51.528;5.076;2023-02-10T03:43:49;103547.66;;;3.93;67.52
64158;BME280;50449;51.528;5.076;2023-02-10T03:46:15;103549.47;;;3.92;67.30
64158;BME280;50449;51.528;5.076;2023-02-10T03:48:40;103549.59;;;3.90;67.72
64158;BME280;50449;51.528;5.076;2023-02-10T03:51:07;103550.47;;;3.91;67.66
64158;BME280;50449;51.528;5.076;2023-02-10T03:53:32;103549.59;;;3.90;67.61
64158;BME280;50449;51.528;5.076;2023-02-10T03:55:58;103547.91;;;3.89;67.22
64158;BME280;50449;51.528;5.076;2023-02-10T03:58:24;103555.09;;;3.89;67.62
64158;BME280;50449;51.528;5.076;2023-02-10T04:00:49;103545.25;;;3.89;67.51
64158;BME280;50449;51.528;5.076;2023-02-10T04:03:15;103542.84;;;3.86;67.65
64158;BME280;50449;51.528;5.076;2023-02-10T04:05:40;103556.22;;;3.86;67.56
64158;BME280;50449;51.528;5.076;2023-02-10T04:08:06;103553.53;;;3.86;67.31
64158;BME280;50449;51.528;5.076;2023-02-10T04:10:32;103550.84;;;3.86;67.81
64158;BME280;50449;51.528;5.076;2023-02-10T04:12:57;103550.97;;;3.85;67.69
64158;BME280;50449;51.528;5.076;2023-02-10T04:15:23;103550.13;;;3.84;67.33
64158;BME280;50449;51.528;5.076;2023-02-10T04:17:48;103545.78;;;3.83;67.62
64158;BME280;50449;51.528;5.076;2023-02-10T04:20:14;103560.00;;;3.84;67.51
64158;BME280;50449;51.528;5.076;2023-02-10T04:22:39;103560.94;;;3.83;67.32
64158;BME280;50449;51.528;5.076;2023-02-10T04:25:05;103555.59;;;3.83;67.44
64158;BME280;50449;51.528;5.076;2023-02-10T04:27:31;103547.72;;;3.81;67.19
64158;BME280;50449;51.528;5.076;2023-02-10T04:29:56;103547.72;;;3.81;67.39
64158;BME280;50449;51.528;5.076;2023-02-10T04:32:22;103549.69;;;3.79;67.58
64158;BME280;50449;51.528;5.076;2023-02-10T04:34:49;103556.84;;;3.79;67.71
64158;BME280;50449;51.528;5.076;2023-02-10T04:37:15;103561.34;;;3.78;67.47
64158;BME280;50449;51.528;5.076;2023-02-10T04:39:40;103557.81;;;3.78;67.30
64158;BME280;50449;51.528;5.076;2023-02-10T04:42:06;103563.16;;;3.78;67.48
64158;BME280;50449;51.528;5.076;2023-02-10T04:44:32;103562.47;;;3.76;67.59
64158;BME280;50449;51.528;5.076;2023-02-10T04:46:57;103561.75;;;3.74;67.42
64158;BME280;50449;51.528;5.076;2023-02-10T04:49:23;103568.78;;;3.75;67.42
64158;BME280;50449;51.528;5.076;2023-02-10T04:51:49;103565.25;;;3.74;67.32
64158;BME280;50449;51.528;5.076;2023-02-10T04:54:15;103563.56;;;3.73;67.62
64158;BME280;50449;51.528;5.076;2023-02-10T04:56:40;103573.38;;;3.73;67.75
64158;BME280;50449;51.528;5.076;2023-02-10T04:59:06;103569.88;;;3.72;67.66
64158;BME280;50449;51.528;5.076;2023-02-10T05:01:31;103563.69;;;3.72;67.47
64158;BME280;50449;51.528;5.076;2023-02-10T05:03:57;103554.81;;;3.71;67.95
64158;BME280;50449;51.528;5.076;2023-02-10T05:06:23;103556.66;;;3.71;67.41
64158;BME280;50449;51.528;5.076;2023-02-10T05:08:49;103556.66;;;3.71;67.43
64158;BME280;50449;51.528;5.076;2023-02-10T05:11:17;103556.66;;;3.71;67.43
64158;BME280;50449;51.528;5.076;2023-02-10T05:13:43;103570.97;;;3.69;67.50
64158;BME280;50449;51.528;5.076;2023-02-10T05:16:10;103568.31;;;3.69;67.64
64158;BME280;50449;51.528;5.076;2023-02-10T05:18:36;103575.47;;;3.69;67.77
64158;BME280;50449;51.528;5.076;2023-02-10T05:21:02;103571.13;;;3.68;67.68
64158;BME280;50449;51.528;5.076;2023-02-10T05:23:28;103566.63;;;3.68;67.49
64158;BME280;50449;51.528;5.076;2023-02-10T05:25:54;103566.75;;;3.67;67.60
64158;BME280;50449;51.528;5.076;2023-02-10T05:28:20;103556.03;;;3.67;67.72
64158;BME280;50449;51.528;5.076;2023-02-10T05:30:47;103567.56;;;3.67;67.55
64158;BME280;50449;51.528;5.076;2023-02-10T05:33:13;103569.41;;;3.67;67.69
64158;BME280;50449;51.528;5.076;2023-02-10T05:35:39;103563.22;;;3.66;67.92
64158;BME280;50449;51.528;5.076;2023-02-10T05:38:05;103565.91;;;3.66;67.93
64158;BME280;50449;51.528;5.076;2023-02-10T05:40:31;103575.75;;;3.66;67.58
64158;BME280;50449;51.528;5.076;2023-02-10T05:42:56;103578.53;;;3.64;67.73
64158;BME280;50449;51.528;5.076;2023-02-10T05:45:22;103571.34;;;3.65;67.82
64158;BME280;50449;51.528;5.076;2023-02-10T05:47:48;103581.22;;;3.64;67.56
64158;BME280;50449;51.528;5.076;2023-02-10T05:50:13;103572.34;;;3.64;67.82
64158;BME280;50449;51.528;5.076;2023-02-10T05:52:40;103577.69;;;3.64;67.77
64158;BME280;50449;51.528;5.076;2023-02-10T05:55:06;103578.69;;;3.63;67.54
64158;BME280;50449;51.528;5.076;2023-02-10T05:57:32;103577.81;;;3.62;67.86
64158;BME280;50449;51.528;5.076;2023-02-10T05:59:57;103583.16;;;3.62;67.95
64158;BME280;50449;51.528;5.076;2023-02-10T06:02:23;103579.63;;;3.62;67.68
64158;BME280;50449;51.528;5.076;2023-02-10T06:04:48;103576.13;;;3.61;67.98
64158;BME280;50449;51.528;5.076;2023-02-10T06:07:14;103591.16;;;3.62;67.95
64158;BME280;50449;51.528;5.076;2023-02-10T06:09:41;103593.00;;;3.62;67.46
64158;BME280;50449;51.528;5.076;2023-02-10T06:12:06;103588.66;;;3.61;67.96
64158;BME280;50449;51.528;5.076;2023-02-10T06:14:32;103586.09;;;3.59;67.97
64158;BME280;50449;51.528;5.076;2023-02-10T06:16:57;103579.78;;;3.60;67.91
64158;BME280;50449;51.528;5.076;2023-02-10T06:19:22;103577.09;;;3.60;67.64
64158;BME280;50449;51.528;5.076;2023-02-10T06:21:48;103579.78;;;3.60;67.64
64158;BME280;50449;51.528;5.076;2023-02-10T06:24:13;103574.44;;;3.60;67.80
64158;BME280;50449;51.528;5.076;2023-02-10T06:26:39;103580.75;;;3.59;67.91
64158;BME280;50449;51.528;5.076;2023-02-10T06:29:04;103578.91;;;3.60;67.52
64158;BME280;50449;51.528;5.076;2023-02-10T06:31:30;103585.13;;;3.60;67.85
64158;BME280;50449;51.528;5.076;2023-02-10T06:33:55;103571.88;;;3.59;68.01
64158;BME280;50449;51.528;5.076;2023-02-10T06:36:20;103576.22;;;3.60;67.80
64158;BME280;50449;51.528;5.076;2023-02-10T06:38:46;103565.53;;;3.60;67.72
64158;BME280;50449;51.528;5.076;2023-02-10T06:41:13;103568.22;;;3.60;67.63
64158;BME280;50449;51.528;5.076;2023-02-10T06:43:38;103571.03;;;3.58;67.83
64158;BME280;50449;51.528;5.076;2023-02-10T06:46:04;103571.88;;;3.59;67.66
64158;BME280;50449;51.528;5.076;2023-02-10T06:48:29;103568.38;;;3.58;67.72
64158;BME280;50449;51.528;5.076;2023-02-10T06:50:55;103568.47;;;3.57;67.90
64158;BME280;50449;51.528;5.076;2023-02-10T06:53:20;103566.66;;;3.57;67.72
64158;BME280;50449;51.528;5.076;2023-02-10T06:55:46;103576.50;;;3.57;67.88
64158;BME280;50449;51.528;5.076;2023-02-10T06:58:11;103582.69;;;3.57;67.57
64158;BME280;50449;51.528;5.076;2023-02-10T07:00:37;103588.88;;;3.58;68.03
64158;BME280;50449;51.528;5.076;2023-02-10T07:03:03;103599.72;;;3.56;67.69
64158;BME280;50449;51.528;5.076;2023-02-10T07:05:28;103603.22;;;3.57;67.79
64158;BME280;50449;51.528;5.076;2023-02-10T07:07:53;103608.56;;;3.57;67.79
64158;BME280;50449;51.528;5.076;2023-02-10T07:10:19;103609.41;;;3.57;67.89
64158;BME280;50449;51.528;5.076;2023-02-10T07:12:45;103601.38;;;3.57;67.68
64158;BME280;50449;51.528;5.076;2023-02-10T07:15:13;103605.91;;;3.57;67.86
64158;BME280;50449;51.528;5.076;2023-02-10T07:17:38;103610.41;;;3.56;67.58
64158;BME280;50449;51.528;5.076;2023-02-10T07:20:04;103609.56;;;3.56;67.69
64158;BME280;50449;51.528;5.076;2023-02-10T07:22:30;103610.41;;;3.56;67.47
64158;BME280;50449;51.528;5.076;2023-02-10T07:24:55;103590.84;;;3.56;67.95
64158;BME280;50449;51.528;5.076;2023-02-10T07:27:22;103602.22;;;3.58;68.10
64158;BME280;50449;51.528;5.076;2023-02-10T07:29:47;103612.94;;;3.58;68.00
64158;BME280;50449;51.528;5.076;2023-02-10T07:32:14;103630.69;;;3.59;67.71
64158;BME280;50449;51.528;5.076;2023-02-10T07:34:39;103622.66;;;3.59;67.79
64158;BME280;50449;51.528;5.076;2023-02-10T07:37:06;103623.50;;;3.59;67.97
64158;BME280;50449;51.528;5.076;2023-02-10T07:39:31;103619.16;;;3.58;67.71
64158;BME280;50449;51.528;5.076;2023-02-10T07:41:57;103622.66;;;3.59;67.57
64158;BME280;50449;51.528;5.076;2023-02-10T07:44:22;103614.63;;;3.59;67.69
64158;BME280;50449;51.528;5.076;2023-02-10T07:46:51;103614.63;;;3.59;67.97
64158;BME280;50449;51.528;5.076;2023-02-10T07:49:16;103596.78;;;3.59;67.69
64158;BME280;50449;51.528;5.076;2023-02-10T07:51:41;103595.09;;;3.58;67.68
64158;BME280;50449;51.528;5.076;2023-02-10T07:54:08;103604.91;;;3.58;67.86
64158;BME280;50449;51.528;5.076;2023-02-10T07:56:33;103611.13;;;3.58;67.79
64158;BME280;50449;51.528;5.076;2023-02-10T07:58:59;103612.94;;;3.58;67.80
64158;BME280;50449;51.528;5.076;2023-02-10T08:01:24;103620.09;;;3.57;68.00
64158;BME280;50449;51.528;5.076;2023-02-10T08:03:50;103628.00;;;3.59;67.92
64158;BME280;50449;51.528;5.076;2023-02-10T08:06:19;103635.03;;;3.60;67.63
64158;BME280;50449;51.528;5.076;2023-02-10T08:08:46;103643.06;;;3.60;67.80
64158;BME280;50449;51.528;5.076;2023-02-10T08:11:11;103633.25;;;3.60;67.89
64158;BME280;50449;51.528;5.076;2023-02-10T08:13:37;103648.28;;;3.61;67.80
64158;BME280;50449;51.528;5.076;2023-02-10T08:16:04;103648.28;;;3.61;67.69
64158;BME280;50449;51.528;5.076;2023-02-10T08:18:30;103645.50;;;3.63;68.04
64158;BME280;50449;51.528;5.076;2023-02-10T08:20:58;103646.47;;;3.62;67.57
64158;BME280;50449;51.528;5.076;2023-02-10T08:23:24;103642.84;;;3.63;67.88
64158;BME280;50449;51.528;5.076;2023-02-10T08:25:49;103652.66;;;3.62;67.86
64158;BME280;50449;51.528;5.076;2023-02-10T08:28:16;103646.34;;;3.63;67.81
64158;BME280;50449;51.528;5.076;2023-02-10T08:30:42;103649.88;;;3.64;67.74
64158;BME280;50449;51.528;5.076;2023-02-10T08:33:07;103651.53;;;3.65;68.13
64158;BME280;50449;51.528;5.076;2023-02-10T08:35:35;103656.06;;;3.64;68.18
64158;BME280;50449;51.528;5.076;2023-02-10T08:38:00;103654.22;;;3.65;67.74
64158;BME280;50449;51.528;5.076;2023-02-10T08:40:26;103658.72;;;3.64;67.83
64158;BME280;50449;51.528;5.076;2023-02-10T08:42:51;103638.06;;;3.66;67.93
64158;BME280;50449;51.528;5.076;2023-02-10T08:45:17;103635.41;;;3.66;67.83
64158;BME280;50449;51.528;5.076;2023-02-10T08:47:42;103630.91;;;3.67;67.95
64158;BME280;50449;51.528;5.076;2023-02-10T08:50:08;103622.88;;;3.67;68.22
64158;BME280;50449;51.528;5.076;2023-02-10T08:52:33;103633.56;;;3.67;68.12
64158;BME280;50449;51.528;5.076;2023-02-10T08:54:59;103630.91;;;3.67;68.21
64158;BME280;50449;51.528;5.076;2023-02-10T08:57:25;103637.97;;;3.68;67.89
64158;BME280;50449;51.528;5.076;2023-02-10T08:59:50;103639.63;;;3.69;67.68
64158;BME280;50449;51.528;5.076;2023-02-10T09:02:15;103636.97;;;3.69;68.32
64158;BME280;50449;51.528;5.076;2023-02-10T09:04:41;103649.34;;;3.70;67.95
64158;BME280;50449;51.528;5.076;2023-02-10T09:07:07;103640.47;;;3.69;67.91
64158;BME280;50449;51.528;5.076;2023-02-10T09:09:37;103644.00;;;3.70;68.25
64158;BME280;50449;51.528;5.076;2023-02-10T09:12:03;103641.31;;;3.70;68.09
64158;BME280;50449;51.528;5.076;2023-02-10T09:14:30;103634.19;;;3.71;67.77
64158;BME280;50449;51.528;5.076;2023-02-10T09:16:55;103635.75;;;3.73;68.09
64158;BME280;50449;51.528;5.076;2023-02-10T09:19:20;103636.59;;;3.74;67.94
64158;BME280;50449;51.528;5.076;2023-02-10T09:21:46;103649.97;;;3.74;67.77
64158;BME280;50449;51.528;5.076;2023-02-10T09:24:11;103646.31;;;3.75;68.21
64158;BME280;50449;51.528;5.076;2023-02-10T09:26:37;103648.13;;;3.74;68.31
64158;BME280;50449;51.528;5.076;2023-02-10T09:29:02;103659.81;;;3.73;68.21
64158;BME280;50449;51.528;5.076;2023-02-10T09:31:28;103667.69;;;3.75;68.15
64158;BME280;50449;51.528;5.076;2023-02-10T09:33:53;103666.72;;;3.76;68.06
64158;BME280;50449;51.528;5.076;2023-02-10T09:36:19;103663.06;;;3.77;68.32
64158;BME280;50449;51.528;5.076;2023-02-10T09:38:45;103662.97;;;3.78;67.92
64158;BME280;50449;51.528;5.076;2023-02-10T09:49:31;103648.34;;;3.82;68.07
64158;BME280;50449;51.528;5.076;2023-02-10T09:54:54;103643.84;;;3.83;68.14
64158;BME280;50449;51.528;5.076;2023-02-10T09:57:51;103647.38;;;3.83;68.15
64158;BME280;50449;51.528;5.076;2023-02-10T10:00:33;103657.09;;;3.84;68.13
64158;BME280;50449;51.528;5.076;2023-02-10T10:03:01;103662.44;;;3.84;67.91
64158;BME280;50449;51.528;5.076;2023-02-10T10:05:38;103672.16;;;3.85;68.12
64158;BME280;50449;51.528;5.076;2023-02-10T10:13:50;103681.63;;;3.89;68.39
64158;BME280;50449;51.528;5.076;2023-02-10T10:19:17;103675.28;;;3.90;68.11
64158;BME280;50449;51.528;5.076;2023-02-10T10:29:55;103669.56;;;3.95;68.25
64158;BME280;50449;51.528;5.076;2023-02-10T10:35:13;103661.44;;;3.97;68.15
64158;BME280;50449;51.528;5.076;2023-02-10T10:37:40;103669.34;;;3.98;68.26
64158;BME280;50449;51.528;5.076;2023-02-10T10:40:07;103670.19;;;3.99;68.04
64158;BME280;50449;51.528;5.076;2023-02-10T10:42:45;103662.88;;;4.01;68.26
64158;BME280;50449;51.528;5.076;2023-02-10T10:45:13;103669.91;;;4.02;68.31
64158;BME280;50449;51.528;5.076;2023-02-10T10:47:46;103667.25;;;4.02;67.93
64158;BME280;50449;51.528;5.076;2023-02-10T10:50:19;103664.47;;;4.03;68.37
64158;BME280;50449;51.528;5.076;2023-02-10T10:52:46;103666.25;;;4.03;68.40
64158;BME280;50449;51.528;5.076;2023-02-10T10:55:22;103654.44;;;4.05;68.38
64158;BME280;50449;51.528;5.076;2023-02-10T10:57:51;103637.44;;;4.06;68.34
64158;BME280;50449;51.528;5.076;2023-02-10T11:00:23;103636.47;;;4.07;68.15
64158;BME280;50449;51.528;5.076;2023-02-10T11:05:22;103628.16;;;4.10;68.34
64158;BME280;50449;51.528;5.076;2023-02-10T11:07:51;103637.75;;;4.13;68.30
64158;BME280;50449;51.528;5.076;2023-02-10T11:12:50;103635.53;;;4.18;68.30
64158;BME280;50449;51.528;5.076;2023-02-10T11:15:39;103633.59;;;4.20;68.31
64158;BME280;50449;51.528;5.076;2023-02-10T11:18:07;103634.31;;;4.22;68.18
64158;BME280;50449;51.528;5.076;2023-02-10T11:20:38;103635.03;;;4.24;67.99
64158;BME280;50449;51.528;5.076;2023-02-10T11:23:14;103629.56;;;4.26;68.15
64158;BME280;50449;51.528;5.076;2023-02-10T11:25:44;103631.97;;;4.29;67.99
64158;BME280;50449;51.528;5.076;2023-02-10T11:28:24;103629.16;;;4.30;67.71
64158;BME280;50449;51.528;5.076;2023-02-10T11:31:22;103618.34;;;4.32;68.20
64158;BME280;50449;51.528;5.076;2023-02-10T11:33:59;103622.59;;;4.34;67.71
64158;BME280;50449;51.528;5.076;2023-02-10T11:36:40;103623.31;;;4.37;68.02
64158;BME280;50449;51.528;5.076;2023-02-10T11:39:20;103618.69;;;4.39;68.31
64158;BME280;50449;51.528;5.076;2023-02-10T11:41:48;103623.88;;;4.40;68.34
64158;BME280;50449;51.528;5.076;2023-02-10T11:44:29;103621.94;;;4.42;68.55
64158;BME280;50449;51.528;5.076;2023-02-10T11:47:02;103609.28;;;4.44;68.54
64158;BME280;50449;51.528;5.076;2023-02-10T11:49:29;103612.66;;;4.46;68.43
64158;BME280;50449;51.528;5.076;2023-02-10T11:52:00;103610.84;;;4.47;68.28
64158;BME280;50449;51.528;5.076;2023-02-10T11:54:27;103602.66;;;4.48;68.45
64158;BME280;50449;51.528;5.076;2023-02-10T12:05:44;103592.16;;;4.57;68.69
64158;BME280;50449;51.528;5.076;2023-02-10T12:14:00;103585.53;;;4.61;68.92
64158;BME280;50449;51.528;5.076;2023-02-10T12:19:39;103590.50;;;4.65;68.89
64158;BME280;50449;51.528;5.076;2023-02-10T12:22:18;103584.19;;;4.66;69.09
64158;BME280;50449;51.528;5.076;2023-02-10T12:24:50;103591.94;;;4.69;69.01
64158;BME280;50449;51.528;5.076;2023-02-10T12:27:57;103589.97;;;4.71;69.42
64158;BME280;50449;51.528;5.076;2023-02-10T12:36:30;103579.56;;;4.78;69.56
64158;BME280;50449;51.528;5.076;2023-02-10T12:42:06;103580.00;;;4.83;69.88
64158;BME280;50449;51.528;5.076;2023-02-10T12:45:07;103570.00;;;4.85;70.23
64158;BME280;50449;51.528;5.076;2023-02-10T12:53:10;103552.53;;;4.91;70.53
64158;BME280;50449;51.528;5.076;2023-02-10T12:55:43;103552.28;;;4.94;70.40
64158;BME280;50449;51.528;5.076;2023-02-10T12:58:16;103552.13;;;4.95;70.43
64158;BME280;50449;51.528;5.076;2023-02-10T13:00:51;103552.00;;;4.97;70.31
64158;BME280;50449;51.528;5.076;2023-02-10T13:03:26;103553.56;;;4.99;70.17
64158;BME280;50449;51.528;5.076;2023-02-10T13:14:18;103541.44;;;5.05;69.90
64158;BME280;50449;51.528;5.076;2023-02-10T13:16:51;103544.84;;;5.07;69.90
64158;BME280;50449;51.528;5.076;2023-02-10T13:19:33;103543.72;;;5.10;70.00
64158;BME280;50449;51.528;5.076;2023-02-10T13:22:25;103542.59;;;5.12;69.84
64158;BME280;50449;51.528;5.076;2023-02-10T13:25:15;103546.00;;;5.14;70.00
64158;BME280;50449;51.528;5.076;2023-02-10T13:31:20;103560.06;;;5.16;70.05
64158;BME280;50449;51.528;5.076;2023-02-10T13:36:36;103547.41;;;5.18;69.95
64158;BME280;50449;51.528;5.076;2023-02-10T13:39:20;103540.06;;;5.20;70.12
64158;BME280;50449;51.528;5.076;2023-02-10T13:41:49;103542.47;;;5.24;69.73
64158;BME280;50449;51.528;5.076;2023-02-10T13:44:33;103537.81;;;5.26;69.75
64158;BME280;50449;51.528;5.076;2023-02-10T13:52:25;103550.53;;;5.33;70.08
64158;BME280;50449;51.528;5.076;2023-02-10T13:55:23;103546.72;;;5.36;69.72
64158;BME280;50449;51.528;5.076;2023-02-10T13:58:16;103530.50;;;5.37;69.70
64158;BME280;50449;51.528;5.076;2023-02-10T14:00:47;103536.59;;;5.39;69.64
64158;BME280;50449;51.528;5.076;2023-02-10T14:08:38;103530.78;;;5.44;69.68
64158;BME280;50449;51.528;5.076;2023-02-10T14:14:01;103509.91;;;5.48;69.89
64158;BME280;50449;51.528;5.076;2023-02-10T14:16:38;103512.44;;;5.49;70.05
64158;BME280;50449;51.528;5.076;2023-02-10T14:19:19;103514.00;;;5.52;69.60
64158;BME280;50449;51.528;5.076;2023-02-10T14:21:46;103508.50;;;5.53;70.08
64158;BME280;50449;51.528;5.076;2023-02-10T14:24:14;103504.69;;;5.56;69.68
64158;BME280;50449;51.528;5.076;2023-02-10T14:26:43;103510.75;;;5.58;69.77
64158;BME280;50449;51.528;5.076;2023-02-10T14:29:14;103506.94;;;5.60;69.82
64158;BME280;50449;51.528;5.076;2023-02-10T14:31:42;103490.72;;;5.62;69.82
64158;BME280;50449;51.528;5.076;2023-02-10T14:34:34;103496.63;;;5.66;70.04
64158;BME280;50449;51.528;5.076;2023-02-10T14:37:17;103492.13;;;5.66;69.75
64158;BME280;50449;51.528;5.076;2023-02-10T14:39:51;103494.66;;;5.68;69.78
64158;BME280;50449;51.528;5.076;2023-02-10T14:42:17;103486.47;;;5.69;69.73
64158;BME280;50449;51.528;5.076;2023-02-10T14:44:51;103496.06;;;5.72;69.69
64158;BME280;50449;51.528;5.076;2023-02-10T14:47:20;103495.09;;;5.73;69.80
64158;BME280;50449;51.528;5.076;2023-02-10T14:49:52;103494.78;;;5.76;69.77
64158;BME280;50449;51.528;5.076;2023-02-10T14:52:29;103493.78;;;5.77;69.84
64158;BME280;50449;51.528;5.076;2023-02-10T14:54:56;103505.22;;;5.79;69.77
64158;BME280;50449;51.528;5.076;2023-02-10T14:57:22;103503.25;;;5.81;69.59
64158;BME280;50449;51.528;5.076;2023-02-10T14:59:55;103490.69;;;5.81;69.38
64158;BME280;50449;51.528;5.076;2023-02-10T15:02:24;103500.28;;;5.84;69.71
64158;BME280;50449;51.528;5.076;2023-02-10T15:04:51;103492.09;;;5.85;69.83
64158;BME280;50449;51.528;5.076;2023-02-10T15:07:54;103494.63;;;5.87;69.73
64158;BME280;50449;51.528;5.076;2023-02-10T15:10:19;103491.81;;;5.89;69.84
64158;BME280;50449;51.528;5.076;2023-02-10T15:12:48;103493.66;;;5.88;69.55
64158;BME280;50449;51.528;5.076;2023-02-10T15:15:26;103489.84;;;5.91;69.67